sensor_id;sensor_type;location;lat;lon;timestamp;temperature;humidity
19437;DHT22;9854;50.968;4.168;2023-07-30T00:01:24;17.20;99.90
19437;DHT22;9854;50.968;4.168;2023-07-30T00:03:50;17.10;99.90
19437;DHT22;9854;50.968;4.168;2023-07-30T00:06:16;17.10;99.90
19437;DHT22;9854;50.968;4.168;2023-07-30T00:08:41;17.00;99.90
19437;DHT22;9854;50.968;4.168;2023-07-30T00:11:07;17.00;99.90
19437;DHT22;9854;50.968;4.168;2023-07-30T00:13:32;17.10;99.90
19437;DHT22;9854;50.968;4.168;2023-07-30T00:15:58;17.20;99.90
19437;DHT22;9854;50.968;4.168;2023-07-30T00:18:23;17.30;99.90
19437;DHT22;9854;50.968;4.168;2023-07-30T00:20:49;17.20;99.90
19437;DHT22;9854;50.968;4.168;2023-07-30T00:23:15;17.10;99.90
19437;DHT22;9854;50.968;4.168;2023-07-30T00:25:40;17.00;99.90
19437;DHT22;9854;50.968;4.168;2023-07-30T00:28:06;17.10;99.90
19437;DHT22;9854;50.968;4.168;2023-07-30T00:30:31;17.10;99.90
19437;DHT22;9854;50.968;4.168;2023-07-30T00:32:57;17.00;99.90
19437;DHT22;9854;50.968;4.168;2023-07-30T00:35:23;17.00;99.90
19437;DHT22;9854;50.968;4.168;2023-07-30T00:37:48;17.00;99.90
19437;DHT22;9854;50.968;4.168;2023-07-30T00:40:14;16.90;99.90
19437;DHT22;9854;50.968;4.168;2023-07-30T00:42:39;17.10;99.90
19437;DHT22;9854;50.968;4.168;2023-07-30T00:45:05;17.10;99.90
19437;DHT22;9854;50.968;4.168;2023-07-30T00:47:31;17.00;99.90
19437;DHT22;9854;50.968;4.168;2023-07-30T00:49:57;17.00;99.90
19437;DHT22;9854;50.968;4.168;2023-07-30T00:52:24;17.00;99.90
19437;DHT22;9854;50.968;4.168;2023-07-30T00:54:51;17.00;99.90
19437;DHT22;9854;50.968;4.168;2023-07-30T00:57:18;17.00;99.90
19437;DHT22;9854;50.968;4.168;2023-07-30T00:59:46;17.00;99.90
19437;DHT22;9854;50.968;4.168;2023-07-30T01:02:12;17.00;99.90
19437;DHT22;9854;50.968;4.168;2023-07-30T01:04:38;16.80;99.90
19437;DHT22;9854;50.968;4.168;2023-07-30T01:07:05;16.80;99.90
19437;DHT22;9854;50.968;4.168;2023-07-30T01:09:32;16.90;99.90
19437;DHT22;9854;50.968;4.168;2023-07-30T01:12:00;16.90;99.90
19437;DHT22;9854;50.968;4.168;2023-07-30T01:14:27;16.90;99.90
19437;DHT22;9854;50.968;4.168;2023-07-30T01:16:53;17.00;99.90
19437;DHT22;9854;50.968;4.168;2023-07-30T01:19:19;16.90;99.90
19437;DHT22;9854;50.968;4.168;2023-07-30T01:21:44;16.80;99.90
19437;DHT22;9854;50.968;4.168;2023-07-30T01:24:10;16.90;99.90
19437;DHT22;9854;50.968;4.168;2023-07-30T01:26:55;17.00;99.90
19437;DHT22;9854;50.968;4.168;2023-07-30T01:29:24;17.00;99.90
19437;DHT22;9854;50.968;4.168;2023-07-30T01:31:56;17.10;99.90
19437;DHT22;9854;50.968;4.168;2023-07-30T01:34:27;17.00;99.90
19437;DHT22;9854;50.968;4.168;2023-07-30T01:36:54;17.00;99.90
19437;DHT22;9854;50.968;4.168;2023-07-30T01:39:20;17.00;99.90
19437;DHT22;9854;50.968;4.168;2023-07-30T01:41:46;17.00;99.90
19437;DHT22;9854;50.968;4.168;2023-07-30T01:44:12;17.00;99.90
19437;DHT22;9854;50.968;4.168;2023-07-30T01:46:37;17.00;99.90
19437;DHT22;9854;50.968;4.168;2023-07-30T01:49:03;17.00;99.90
19437;DHT22;9854;50.968;4.168;2023-07-30T01:51:29;16.90;99.90
19437;DHT22;9854;50.968;4.168;2023-07-30T01:53:54;16.90;99.90
19437;DHT22;9854;50.968;4.168;2023-07-30T01:56:20;16.90;99.90
19437;DHT22;9854;50.968;4.168;2023-07-30T01:58:45;16.90;99.90
19437;DHT22;9854;50.968;4.168;2023-07-30T02:01:11;17.00;99.90
19437;DHT22;9854;50.968;4.168;2023-07-30T02:03:37;16.90;99.90
19437;DHT22;9854;50.968;4.168;2023-07-30T02:06:02;16.90;99.90
19437;DHT22;9854;50.968;4.168;2023-07-30T02:08:28;16.90;99.90
19437;DHT22;9854;50.968;4.168;2023-07-30T02:10:58;16.80;99.90
19437;DHT22;9854;50.968;4.168;2023-07-30T02:13:24;16.80;99.90
19437;DHT22;9854;50.968;4.168;2023-07-30T02:15:50;16.80;99.90
19437;DHT22;9854;50.968;4.168;2023-07-30T02:18:16;16.70;99.90
19437;DHT22;9854;50.968;4.168;2023-07-30T02:20:41;16.60;99.90
19437;DHT22;9854;50.968;4.168;2023-07-30T02:23:07;16.70;99.90
19437;DHT22;9854;50.968;4.168;2023-07-30T02:25:34;16.60;99.90
19437;DHT22;9854;50.968;4.168;2023-07-30T02:28:00;16.70;99.90
19437;DHT22;9854;50.968;4.168;2023-07-30T02:30:29;16.80;99.90
19437;DHT22;9854;50.968;4.168;2023-07-30T02:32:54;16.70;99.90
19437;DHT22;9854;50.968;4.168;2023-07-30T02:35:20;16.70;99.90
19437;DHT22;9854;50.968;4.168;2023-07-30T02:37:45;16.80;99.90
19437;DHT22;9854;50.968;4.168;2023-07-30T02:40:11;16.70;99.90
19437;DHT22;9854;50.968;4.168;2023-07-30T02:42:37;16.60;99.90
19437;DHT22;9854;50.968;4.168;2023-07-30T02:45:03;16.60;99.90
19437;DHT22;9854;50.968;4.168;2023-07-30T02:47:30;16.60;99.90
19437;DHT22;9854;50.968;4.168;2023-07-30T02:49:56;16.70;99.90
19437;DHT22;9854;50.968;4.168;2023-07-30T02:52:21;16.60;99.90
19437;DHT22;9854;50.968;4.168;2023-07-30T02:54:47;16.60;99.90
19437;DHT22;9854;50.968;4.168;2023-07-30T02:57:12;16.80;99.90
19437;DHT22;9854;50.968;4.168;2023-07-30T02:59:38;16.70;99.90
19437;DHT22;9854;50.968;4.168;2023-07-30T03:02:06;16.70;99.90
19437;DHT22;9854;50.968;4.168;2023-07-30T03:04:32;16.60;99.90
19437;DHT22;9854;50.968;4.168;2023-07-30T03:06:57;16.50;99.90
19437;DHT22;9854;50.968;4.168;2023-07-30T03:09:23;16.50;99.90
19437;DHT22;9854;50.968;4.168;2023-07-30T03:11:52;16.60;99.90
19437;DHT22;9854;50.968;4.168;2023-07-30T03:14:17;16.70;99.90
19437;DHT22;9854;50.968;4.168;2023-07-30T03:16:47;16.60;99.90
19437;DHT22;9854;50.968;4.168;2023-07-30T03:19:13;16.60;99.90
19437;DHT22;9854;50.968;4.168;2023-07-30T03:21:38;16.60;99.90
19437;DHT22;9854;50.968;4.168;2023-07-30T03:24:04;16.60;99.90
19437;DHT22;9854;50.968;4.168;2023-07-30T03:26:30;16.70;99.90
19437;DHT22;9854;50.968;4.168;2023-07-30T03:28:55;16.70;99.90
19437;DHT22;9854;50.968;4.168;2023-07-30T03:31:21;16.70;99.90
19437;DHT22;9854;50.968;4.168;2023-07-30T03:33:47;16.60;99.90
19437;DHT22;9854;50.968;4.168;2023-07-30T03:36:13;16.60;99.90
19437;DHT22;9854;50.968;4.168;2023-07-30T03:38:39;16.60;99.90
19437;DHT22;9854;50.968;4.168;2023-07-30T03:41:05;16.50;99.90
19437;DHT22;9854;50.968;4.168;2023-07-30T03:43:32;16.50;99.90
19437;DHT22;9854;50.968;4.168;2023-07-30T03:45:58;16.50;99.90
19437;DHT22;9854;50.968;4.168;2023-07-30T03:48:23;16.60;99.90
19437;DHT22;9854;50.968;4.168;2023-07-30T03:50:49;16.50;99.90
19437;DHT22;9854;50.968;4.168;2023-07-30T03:53:15;16.40;99.90
19437;DHT22;9854;50.968;4.168;2023-07-30T03:55:41;16.50;99.90
19437;DHT22;9854;50.968;4.168;2023-07-30T03:58:06;16.50;99.90
19437;DHT22;9854;50.968;4.168;2023-07-30T04:00:32;16.40;99.90
19437;DHT22;9854;50.968;4.168;2023-07-30T04:02:58;16.40;99.90
19437;DHT22;9854;50.968;4.168;2023-07-30T04:05:23;16.30;99.90
19437;DHT22;9854;50.968;4.168;2023-07-30T04:07:49;16.20;99.90
19437;DHT22;9854;50.968;4.168;2023-07-30T04:10:15;16.30;99.90
19437;DHT22;9854;50.968;4.168;2023-07-30T04:12:40;16.40;99.90
19437;DHT22;9854;50.968;4.168;2023-07-30T04:15:06;16.50;99.90
19437;DHT22;9854;50.968;4.168;2023-07-30T04:17:34;16.40;99.90
19437;DHT22;9854;50.968;4.168;2023-07-30T04:19:59;16.30;99.90
19437;DHT22;9854;50.968;4.168;2023-07-30T04:22:25;16.50;99.90
19437;DHT22;9854;50.968;4.168;2023-07-30T04:24:50;16.40;99.90
19437;DHT22;9854;50.968;4.168;2023-07-30T04:27:16;16.40;99.90
19437;DHT22;9854;50.968;4.168;2023-07-30T04:29:42;16.50;99.90
19437;DHT22;9854;50.968;4.168;2023-07-30T04:32:07;16.50;99.90
19437;DHT22;9854;50.968;4.168;2023-07-30T04:34:33;16.40;99.90
19437;DHT22;9854;50.968;4.168;2023-07-30T04:36:58;16.50;99.90
19437;DHT22;9854;50.968;4.168;2023-07-30T04:39:24;16.50;99.90
19437;DHT22;9854;50.968;4.168;2023-07-30T04:41:50;16.30;99.90
19437;DHT22;9854;50.968;4.168;2023-07-30T04:44:15;16.50;99.90
19437;DHT22;9854;50.968;4.168;2023-07-30T04:46:41;16.50;99.90
19437;DHT22;9854;50.968;4.168;2023-07-30T04:49:06;16.50;99.90
19437;DHT22;9854;50.968;4.168;2023-07-30T04:51:32;16.50;99.90
19437;DHT22;9854;50.968;4.168;2023-07-30T04:53:58;16.50;99.90
19437;DHT22;9854;50.968;4.168;2023-07-30T04:56:23;16.50;99.90
19437;DHT22;9854;50.968;4.168;2023-07-30T04:58:51;16.50;99.90
19437;DHT22;9854;50.968;4.168;2023-07-30T05:01:17;16.60;99.90
19437;DHT22;9854;50.968;4.168;2023-07-30T05:03:43;16.70;99.90
19437;DHT22;9854;50.968;4.168;2023-07-30T05:06:08;16.70;99.90
19437;DHT22;9854;50.968;4.168;2023-07-30T05:08:34;16.70;99.90
19437;DHT22;9854;50.968;4.168;2023-07-30T05:10:59;16.70;99.90
19437;DHT22;9854;50.968;4.168;2023-07-30T05:13:25;16.50;99.90
19437;DHT22;9854;50.968;4.168;2023-07-30T05:15:50;16.50;99.90
19437;DHT22;9854;50.968;4.168;2023-07-30T05:18:16;16.50;99.90
19437;DHT22;9854;50.968;4.168;2023-07-30T05:20:42;16.60;99.90
19437;DHT22;9854;50.968;4.168;2023-07-30T05:23:07;16.60;99.90
19437;DHT22;9854;50.968;4.168;2023-07-30T05:25:33;16.70;99.90
19437;DHT22;9854;50.968;4.168;2023-07-30T05:27:58;16.80;99.90
19437;DHT22;9854;50.968;4.168;2023-07-30T05:30:24;16.70;99.90
19437;DHT22;9854;50.968;4.168;2023-07-30T05:32:50;16.70;99.90
19437;DHT22;9854;50.968;4.168;2023-07-30T05:35:15;16.70;99.90
19437;DHT22;9854;50.968;4.168;2023-07-30T05:37:42;16.60;99.90
19437;DHT22;9854;50.968;4.168;2023-07-30T05:40:08;16.60;99.90
19437;DHT22;9854;50.968;4.168;2023-07-30T05:42:33;16.70;99.90
19437;DHT22;9854;50.968;4.168;2023-07-30T05:44:59;16.70;99.90
19437;DHT22;9854;50.968;4.168;2023-07-30T05:47:24;16.70;99.90
19437;DHT22;9854;50.968;4.168;2023-07-30T05:49:50;16.80;99.90
19437;DHT22;9854;50.968;4.168;2023-07-30T05:52:15;17.20;99.90
19437;DHT22;9854;50.968;4.168;2023-07-30T05:54:41;17.20;99.90
19437;DHT22;9854;50.968;4.168;2023-07-30T05:57:07;17.00;99.90
19437;DHT22;9854;50.968;4.168;2023-07-30T05:59:32;16.90;99.90
19437;DHT22;9854;50.968;4.168;2023-07-30T06:02:02;16.90;99.90
19437;DHT22;9854;50.968;4.168;2023-07-30T06:04:28;16.80;99.90
19437;DHT22;9854;50.968;4.168;2023-07-30T06:06:54;16.90;99.90
19437;DHT22;9854;50.968;4.168;2023-07-30T06:09:19;17.00;99.90
19437;DHT22;9854;50.968;4.168;2023-07-30T06:11:45;17.00;99.90
19437;DHT22;9854;50.968;4.168;2023-07-30T06:14:10;17.00;99.90
19437;DHT22;9854;50.968;4.168;2023-07-30T06:16:36;16.90;99.90
19437;DHT22;9854;50.968;4.168;2023-07-30T06:19:02;16.80;99.90
19437;DHT22;9854;50.968;4.168;2023-07-30T06:21:27;16.80;99.90
19437;DHT22;9854;50.968;4.168;2023-07-30T06:23:53;16.80;99.90
19437;DHT22;9854;50.968;4.168;2023-07-30T06:26:19;16.80;99.90
19437;DHT22;9854;50.968;4.168;2023-07-30T06:28:44;16.80;99.90
19437;DHT22;9854;50.968;4.168;2023-07-30T06:31:10;16.90;99.90
19437;DHT22;9854;50.968;4.168;2023-07-30T06:33:36;16.80;99.90
19437;DHT22;9854;50.968;4.168;2023-07-30T06:36:03;16.90;99.90
19437;DHT22;9854;50.968;4.168;2023-07-30T06:38:29;16.80;99.90
19437;DHT22;9854;50.968;4.168;2023-07-30T06:40:54;16.90;99.90
19437;DHT22;9854;50.968;4.168;2023-07-30T06:43:23;17.00;99.90
19437;DHT22;9854;50.968;4.168;2023-07-30T06:45:48;17.10;99.90
19437;DHT22;9854;50.968;4.168;2023-07-30T06:48:14;17.20;99.90
19437;DHT22;9854;50.968;4.168;2023-07-30T06:50:41;17.30;99.90
19437;DHT22;9854;50.968;4.168;2023-07-30T06:53:07;17.30;99.90
19437;DHT22;9854;50.968;4.168;2023-07-30T06:55:32;17.30;99.90
19437;DHT22;9854;50.968;4.168;2023-07-30T06:57:59;17.30;99.90
19437;DHT22;9854;50.968;4.168;2023-07-30T07:00:24;17.40;99.90
19437;DHT22;9854;50.968;4.168;2023-07-30T07:02:50;17.60;99.90
19437;DHT22;9854;50.968;4.168;2023-07-30T07:05:16;17.60;99.90
19437;DHT22;9854;50.968;4.168;2023-07-30T07:07:42;17.60;99.90
19437;DHT22;9854;50.968;4.168;2023-07-30T07:10:08;17.80;99.90
19437;DHT22;9854;50.968;4.168;2023-07-30T07:12:36;17.80;99.90
19437;DHT22;9854;50.968;4.168;2023-07-30T07:15:01;17.80;99.90
19437;DHT22;9854;50.968;4.168;2023-07-30T07:17:28;18.00;99.90
19437;DHT22;9854;50.968;4.168;2023-07-30T07:19:53;18.00;99.90
19437;DHT22;9854;50.968;4.168;2023-07-30T07:22:19;18.20;99.90
19437;DHT22;9854;50.968;4.168;2023-07-30T07:24:45;18.20;99.90
19437;DHT22;9854;50.968;4.168;2023-07-30T07:27:11;18.30;99.90
19437;DHT22;9854;50.968;4.168;2023-07-30T07:29:37;18.40;99.90
19437;DHT22;9854;50.968;4.168;2023-07-30T07:32:03;18.50;99.90
19437;DHT22;9854;50.968;4.168;2023-07-30T07:34:28;18.50;99.90
19437;DHT22;9854;50.968;4.168;2023-07-30T07:36:54;18.40;99.90
19437;DHT22;9854;50.968;4.168;2023-07-30T07:39:20;18.40;99.90
19437;DHT22;9854;50.968;4.168;2023-07-30T07:41:46;18.60;99.90
19437;DHT22;9854;50.968;4.168;2023-07-30T07:44:11;18.60;99.90
19437;DHT22;9854;50.968;4.168;2023-07-30T07:46:37;18.70;99.90
19437;DHT22;9854;50.968;4.168;2023-07-30T07:49:02;18.60;99.90
19437;DHT22;9854;50.968;4.168;2023-07-30T07:51:28;18.70;99.90
19437;DHT22;9854;50.968;4.168;2023-07-30T07:53:54;18.70;99.90
19437;DHT22;9854;50.968;4.168;2023-07-30T07:56:19;18.80;99.90
19437;DHT22;9854;50.968;4.168;2023-07-30T07:58:45;18.70;99.90
19437;DHT22;9854;50.968;4.168;2023-07-30T08:01:11;18.80;99.90
19437;DHT22;9854;50.968;4.168;2023-07-30T08:03:36;18.90;99.90
19437;DHT22;9854;50.968;4.168;2023-07-30T08:06:02;19.10;99.90
19437;DHT22;9854;50.968;4.168;2023-07-30T08:08:28;19.20;99.90
19437;DHT22;9854;50.968;4.168;2023-07-30T08:10:54;19.10;99.90
19437;DHT22;9854;50.968;4.168;2023-07-30T08:13:19;19.00;99.90
19437;DHT22;9854;50.968;4.168;2023-07-30T08:15:46;19.10;99.90
19437;DHT22;9854;50.968;4.168;2023-07-30T08:18:11;19.20;99.90
19437;DHT22;9854;50.968;4.168;2023-07-30T08:20:37;19.10;99.90
19437;DHT22;9854;50.968;4.168;2023-07-30T08:23:03;19.00;99.90
19437;DHT22;9854;50.968;4.168;2023-07-30T08:25:29;18.90;99.90
19437;DHT22;9854;50.968;4.168;2023-07-30T08:27:55;19.00;99.90
19437;DHT22;9854;50.968;4.168;2023-07-30T08:30:21;19.10;99.90
19437;DHT22;9854;50.968;4.168;2023-07-30T08:32:46;19.20;99.90
19437;DHT22;9854;50.968;4.168;2023-07-30T08:35:12;19.10;99.90
19437;DHT22;9854;50.968;4.168;2023-07-30T08:37:37;19.10;99.90
19437;DHT22;9854;50.968;4.168;2023-07-30T08:40:04;19.10;99.90
19437;DHT22;9854;50.968;4.168;2023-07-30T08:42:29;19.00;99.90
19437;DHT22;9854;50.968;4.168;2023-07-30T08:44:55;19.00;99.90
19437;DHT22;9854;50.968;4.168;2023-07-30T08:47:21;18.60;99.90
19437;DHT22;9854;50.968;4.168;2023-07-30T08:49:46;18.20;99.90
19437;DHT22;9854;50.968;4.168;2023-07-30T08:52:12;17.90;99.90
19437;DHT22;9854;50.968;4.168;2023-07-30T08:54:39;17.60;99.90
19437;DHT22;9854;50.968;4.168;2023-07-30T08:57:06;17.50;99.90
19437;DHT22;9854;50.968;4.168;2023-07-30T08:59:41;17.40;99.90
19437;DHT22;9854;50.968;4.168;2023-07-30T09:02:13;17.20;99.90
19437;DHT22;9854;50.968;4.168;2023-07-30T09:04:46;17.20;99.90
19437;DHT22;9854;50.968;4.168;2023-07-30T09:07:13;17.40;99.90
19437;DHT22;9854;50.968;4.168;2023-07-30T09:09:40;17.50;99.90
19437;DHT22;9854;50.968;4.168;2023-07-30T09:12:13;17.50;99.90
19437;DHT22;9854;50.968;4.168;2023-07-30T09:14:39;17.70;99.90
19437;DHT22;9854;50.968;4.168;2023-07-30T09:17:05;17.80;99.90
19437;DHT22;9854;50.968;4.168;2023-07-30T09:19:35;18.00;99.90
19437;DHT22;9854;50.968;4.168;2023-07-30T09:22:05;17.90;99.90
19437;DHT22;9854;50.968;4.168;2023-07-30T09:24:31;17.90;99.90
19437;DHT22;9854;50.968;4.168;2023-07-30T09:27:01;18.00;99.90
19437;DHT22;9854;50.968;4.168;2023-07-30T09:29:27;18.00;99.90
19437;DHT22;9854;50.968;4.168;2023-07-30T09:31:54;18.10;99.90
19437;DHT22;9854;50.968;4.168;2023-07-30T09:34:23;18.20;99.90
19437;DHT22;9854;50.968;4.168;2023-07-30T09:36:55;18.30;99.90
19437;DHT22;9854;50.968;4.168;2023-07-30T09:39:25;18.30;99.90
19437;DHT22;9854;50.968;4.168;2023-07-30T09:41:59;18.50;99.90
19437;DHT22;9854;50.968;4.168;2023-07-30T09:44:24;18.50;99.90
19437;DHT22;9854;50.968;4.168;2023-07-30T09:46:50;18.60;99.90
19437;DHT22;9854;50.968;4.168;2023-07-30T09:49:17;18.60;99.90
19437;DHT22;9854;50.968;4.168;2023-07-30T09:51:43;18.80;99.90
19437;DHT22;9854;50.968;4.168;2023-07-30T09:54:13;19.00;99.90
19437;DHT22;9854;50.968;4.168;2023-07-30T09:56:40;19.30;99.90
19437;DHT22;9854;50.968;4.168;2023-07-30T09:59:07;19.40;99.90
19437;DHT22;9854;50.968;4.168;2023-07-30T10:01:45;19.60;99.90
19437;DHT22;9854;50.968;4.168;2023-07-30T10:04:11;19.50;99.90
19437;DHT22;9854;50.968;4.168;2023-07-30T10:06:56;19.70;99.90
19437;DHT22;9854;50.968;4.168;2023-07-30T10:09:26;19.80;99.90
19437;DHT22;9854;50.968;4.168;2023-07-30T10:11:54;19.80;99.90
19437;DHT22;9854;50.968;4.168;2023-07-30T10:14:22;19.90;99.90
19437;DHT22;9854;50.968;4.168;2023-07-30T10:16:53;19.90;99.90
19437;DHT22;9854;50.968;4.168;2023-07-30T10:19:26;20.10;99.90
19437;DHT22;9854;50.968;4.168;2023-07-30T10:24:40;20.40;99.90
19437;DHT22;9854;50.968;4.168;2023-07-30T10:27:07;20.40;99.90
19437;DHT22;9854;50.968;4.168;2023-07-30T10:29:35;20.30;99.90
19437;DHT22;9854;50.968;4.168;2023-07-30T10:32:05;20.00;99.90
19437;DHT22;9854;50.968;4.168;2023-07-30T10:34:47;19.90;99.90
19437;DHT22;9854;50.968;4.168;2023-07-30T10:37:20;19.80;99.90
19437;DHT22;9854;50.968;4.168;2023-07-30T10:39:49;19.90;99.90
19437;DHT22;9854;50.968;4.168;2023-07-30T10:42:15;20.00;99.90
19437;DHT22;9854;50.968;4.168;2023-07-30T10:44:44;20.20;99.90
19437;DHT22;9854;50.968;4.168;2023-07-30T10:47:11;20.50;99.90
19437;DHT22;9854;50.968;4.168;2023-07-30T10:49:37;20.60;99.90
19437;DHT22;9854;50.968;4.168;2023-07-30T10:52:04;20.40;99.90
19437;DHT22;9854;50.968;4.168;2023-07-30T10:54:33;20.20;99.90
19437;DHT22;9854;50.968;4.168;2023-07-30T10:57:00;20.20;99.90
19437;DHT22;9854;50.968;4.168;2023-07-30T10:59:37;20.50;99.90
19437;DHT22;9854;50.968;4.168;2023-07-30T11:02:04;20.40;99.90
19437;DHT22;9854;50.968;4.168;2023-07-30T11:04:33;20.60;99.90
19437;DHT22;9854;50.968;4.168;2023-07-30T11:06:59;20.80;99.90
19437;DHT22;9854;50.968;4.168;2023-07-30T11:09:27;21.10;99.90
19437;DHT22;9854;50.968;4.168;2023-07-30T11:11:54;21.30;99.90
19437;DHT22;9854;50.968;4.168;2023-07-30T11:14:24;21.30;99.90
19437;DHT22;9854;50.968;4.168;2023-07-30T11:16:55;21.20;99.90
19437;DHT22;9854;50.968;4.168;2023-07-30T11:19:21;21.20;99.90
19437;DHT22;9854;50.968;4.168;2023-07-30T11:21:48;21.30;99.90
19437;DHT22;9854;50.968;4.168;2023-07-30T11:24:14;21.40;99.90
19437;DHT22;9854;50.968;4.168;2023-07-30T11:26:40;21.20;99.90
19437;DHT22;9854;50.968;4.168;2023-07-30T11:29:19;21.10;99.90
19437;DHT22;9854;50.968;4.168;2023-07-30T11:31:46;21.00;99.90
19437;DHT22;9854;50.968;4.168;2023-07-30T11:34:13;21.40;99.90
19437;DHT22;9854;50.968;4.168;2023-07-30T11:36:42;21.50;99.90
19437;DHT22;9854;50.968;4.168;2023-07-30T11:39:09;21.70;99.90
19437;DHT22;9854;50.968;4.168;2023-07-30T11:41:35;21.90;99.90
19437;DHT22;9854;50.968;4.168;2023-07-30T11:44:01;22.40;99.90
19437;DHT22;9854;50.968;4.168;2023-07-30T11:46:27;22.10;99.90
19437;DHT22;9854;50.968;4.168;2023-07-30T11:49:11;22.50;99.90
19437;DHT22;9854;50.968;4.168;2023-07-30T11:51:38;22.60;99.90
19437;DHT22;9854;50.968;4.168;2023-07-30T11:54:03;22.70;99.90
19437;DHT22;9854;50.968;4.168;2023-07-30T11:56:30;22.50;99.90
19437;DHT22;9854;50.968;4.168;2023-07-30T11:58:58;22.50;99.90
19437;DHT22;9854;50.968;4.168;2023-07-30T12:01:27;22.20;99.90
19437;DHT22;9854;50.968;4.168;2023-07-30T12:03:57;22.10;99.90
19437;DHT22;9854;50.968;4.168;2023-07-30T12:06:23;22.20;99.90
19437;DHT22;9854;50.968;4.168;2023-07-30T12:08:50;22.20;99.90
19437;DHT22;9854;50.968;4.168;2023-07-30T12:11:18;22.40;99.90
19437;DHT22;9854;50.968;4.168;2023-07-30T12:13:47;22.70;99.90
19437;DHT22;9854;50.968;4.168;2023-07-30T12:16:15;22.80;99.90
19437;DHT22;9854;50.968;4.168;2023-07-30T12:18:41;23.20;99.90
19437;DHT22;9854;50.968;4.168;2023-07-30T12:21:07;23.10;99.90
19437;DHT22;9854;50.968;4.168;2023-07-30T12:23:34;22.90;99.90
19437;DHT22;9854;50.968;4.168;2023-07-30T12:26:00;22.80;99.90
19437;DHT22;9854;50.968;4.168;2023-07-30T12:28:26;22.80;99.90
19437;DHT22;9854;50.968;4.168;2023-07-30T12:30:52;23.00;99.90
19437;DHT22;9854;50.968;4.168;2023-07-30T12:33:17;23.20;99.90
19437;DHT22;9854;50.968;4.168;2023-07-30T12:35:44;23.30;99.90
19437;DHT22;9854;50.968;4.168;2023-07-30T12:38:09;23.20;99.90
19437;DHT22;9854;50.968;4.168;2023-07-30T12:40:35;23.20;99.90
19437;DHT22;9854;50.968;4.168;2023-07-30T12:43:02;23.30;99.90
19437;DHT22;9854;50.968;4.168;2023-07-30T12:45:28;23.00;99.90
19437;DHT22;9854;50.968;4.168;2023-07-30T12:47:54;23.10;99.90
19437;DHT22;9854;50.968;4.168;2023-07-30T12:50:20;23.00;99.90
19437;DHT22;9854;50.968;4.168;2023-07-30T12:52:45;23.00;99.90
19437;DHT22;9854;50.968;4.168;2023-07-30T12:55:11;23.00;99.90
19437;DHT22;9854;50.968;4.168;2023-07-30T12:57:36;22.90;99.90
19437;DHT22;9854;50.968;4.168;2023-07-30T13:00:02;23.00;99.90
19437;DHT22;9854;50.968;4.168;2023-07-30T13:02:30;23.00;99.90
19437;DHT22;9854;50.968;4.168;2023-07-30T13:04:59;23.30;99.90
19437;DHT22;9854;50.968;4.168;2023-07-30T13:07:24;23.70;99.90
19437;DHT22;9854;50.968;4.168;2023-07-30T13:10:05;24.00;99.90
19437;DHT22;9854;50.968;4.168;2023-07-30T13:12:31;24.10;99.90
19437;DHT22;9854;50.968;4.168;2023-07-30T13:14:57;24.10;99.90
19437;DHT22;9854;50.968;4.168;2023-07-30T13:17:22;23.70;99.90
19437;DHT22;9854;50.968;4.168;2023-07-30T13:19:48;23.60;99.90
19437;DHT22;9854;50.968;4.168;2023-07-30T13:22:14;23.40;99.90
19437;DHT22;9854;50.968;4.168;2023-07-30T13:24:39;23.10;99.90
19437;DHT22;9854;50.968;4.168;2023-07-30T13:27:05;23.40;99.90
19437;DHT22;9854;50.968;4.168;2023-07-30T13:29:31;23.20;99.90
19437;DHT22;9854;50.968;4.168;2023-07-30T13:31:56;22.90;99.90
19437;DHT22;9854;50.968;4.168;2023-07-30T13:34:22;23.00;99.90
19437;DHT22;9854;50.968;4.168;2023-07-30T13:36:48;23.30;99.90
19437;DHT22;9854;50.968;4.168;2023-07-30T13:39:13;23.50;99.90
19437;DHT22;9854;50.968;4.168;2023-07-30T13:41:39;23.40;99.90
19437;DHT22;9854;50.968;4.168;2023-07-30T13:44:05;23.30;99.90
19437;DHT22;9854;50.968;4.168;2023-07-30T13:46:31;23.20;99.90
19437;DHT22;9854;50.968;4.168;2023-07-30T13:48:56;23.10;99.90
19437;DHT22;9854;50.968;4.168;2023-07-30T13:51:22;22.90;99.90
19437;DHT22;9854;50.968;4.168;2023-07-30T13:53:48;22.60;99.90
19437;DHT22;9854;50.968;4.168;2023-07-30T13:56:14;22.80;99.90
19437;DHT22;9854;50.968;4.168;2023-07-30T13:58:39;23.30;99.90
19437;DHT22;9854;50.968;4.168;2023-07-30T14:01:06;23.40;99.90
19437;DHT22;9854;50.968;4.168;2023-07-30T14:03:34;23.60;99.90
19437;DHT22;9854;50.968;4.168;2023-07-30T14:05:59;23.60;99.90
19437;DHT22;9854;50.968;4.168;2023-07-30T14:08:25;23.20;99.90
19437;DHT22;9854;50.968;4.168;2023-07-30T14:10:51;23.00;99.90
19437;DHT22;9854;50.968;4.168;2023-07-30T14:13:16;22.70;99.90
19437;DHT22;9854;50.968;4.168;2023-07-30T14:15:42;22.60;99.90
19437;DHT22;9854;50.968;4.168;2023-07-30T14:18:08;22.40;99.90
19437;DHT22;9854;50.968;4.168;2023-07-30T14:20:34;22.30;99.90
19437;DHT22;9854;50.968;4.168;2023-07-30T14:23:00;22.20;99.90
19437;DHT22;9854;50.968;4.168;2023-07-30T14:25:26;22.20;99.90
19437;DHT22;9854;50.968;4.168;2023-07-30T14:27:52;22.50;99.90
19437;DHT22;9854;50.968;4.168;2023-07-30T14:30:18;22.80;99.90
19437;DHT22;9854;50.968;4.168;2023-07-30T14:32:43;23.00;99.90
19437;DHT22;9854;50.968;4.168;2023-07-30T14:35:09;23.20;99.90
19437;DHT22;9854;50.968;4.168;2023-07-30T14:37:34;23.10;99.90
19437;DHT22;9854;50.968;4.168;2023-07-30T14:40:00;23.30;99.90
19437;DHT22;9854;50.968;4.168;2023-07-30T14:42:26;23.50;99.90
19437;DHT22;9854;50.968;4.168;2023-07-30T14:44:51;23.30;99.90
19437;DHT22;9854;50.968;4.168;2023-07-30T14:47:17;23.20;99.90
19437;DHT22;9854;50.968;4.168;2023-07-30T14:49:43;22.70;99.90
19437;DHT22;9854;50.968;4.168;2023-07-30T14:52:08;22.40;99.90
19437;DHT22;9854;50.968;4.168;2023-07-30T14:54:34;22.10;99.90
19437;DHT22;9854;50.968;4.168;2023-07-30T14:56:59;21.90;99.90
19437;DHT22;9854;50.968;4.168;2023-07-30T14:59:25;21.90;99.90
19437;DHT22;9854;50.968;4.168;2023-07-30T15:01:51;21.80;99.90
19437;DHT22;9854;50.968;4.168;2023-07-30T15:04:17;21.80;99.90
19437;DHT22;9854;50.968;4.168;2023-07-30T15:06:42;21.50;99.90
19437;DHT22;9854;50.968;4.168;2023-07-30T15:09:08;21.10;99.90
19437;DHT22;9854;50.968;4.168;2023-07-30T15:11:33;20.90;99.90
19437;DHT22;9854;50.968;4.168;2023-07-30T15:13:59;20.80;99.90
19437;DHT22;9854;50.968;4.168;2023-07-30T15:16:25;20.60;99.90
19437;DHT22;9854;50.968;4.168;2023-07-30T15:18:50;20.60;99.90
19437;DHT22;9854;50.968;4.168;2023-07-30T15:21:16;20.50;99.90
19437;DHT22;9854;50.968;4.168;2023-07-30T15:23:43;20.30;99.90
19437;DHT22;9854;50.968;4.168;2023-07-30T15:26:11;20.20;99.90
19437;DHT22;9854;50.968;4.168;2023-07-30T15:28:37;20.00;99.90
19437;DHT22;9854;50.968;4.168;2023-07-30T15:31:03;20.00;99.90
19437;DHT22;9854;50.968;4.168;2023-07-30T15:33:28;20.00;99.90
19437;DHT22;9854;50.968;4.168;2023-07-30T15:35:54;20.10;99.90
19437;DHT22;9854;50.968;4.168;2023-07-30T15:38:20;19.90;99.90
19437;DHT22;9854;50.968;4.168;2023-07-30T15:40:45;20.00;99.90
19437;DHT22;9854;50.968;4.168;2023-07-30T15:43:11;20.00;99.90